sensor_id;sensor_type;location;lat;lon;timestamp;pressure;altitude;pressure_sealevel;temperature
59339;BMP280;45117;50.960;5.500;2023-10-19T00:02:44;98390.88;;;14.76
59339;BMP280;45117;50.960;5.500;2023-10-19T00:05:11;98390.19;;;14.76
59339;BMP280;45117;50.960;5.500;2023-10-19T00:07:39;98391.91;;;14.79
59339;BMP280;45117;50.960;5.500;2023-10-19T00:10:06;98391.47;;;14.86
59339;BMP280;45117;50.960;5.500;2023-10-19T00:12:33;98400.50;;;14.83
59339;BMP280;45117;50.960;5.500;2023-10-19T00:14:59;98400.56;;;14.94
59339;BMP280;45117;50.960;5.500;2023-10-19T00:17:29;98401.59;;;15.02
59339;BMP280;45117;50.960;5.500;2023-10-19T00:19:58;98399.59;;;14.97
59339;BMP280;45117;50.960;5.500;2023-10-19T00:22:44;98399.16;;;14.98
59339;BMP280;45117;50.960;5.500;2023-10-19T00:25:11;98399.16;;;14.98
59339;BMP280;45117;50.960;5.500;2023-10-19T00:27:38;98401.84;;;15.04
59339;BMP280;45117;50.960;5.500;2023-10-19T00:30:08;98397.69;;;15.03
59339;BMP280;45117;50.960;5.500;2023-10-19T00:32:36;98397.94;;;15.11
59339;BMP280;45117;50.960;5.500;2023-10-19T00:35:04;98402.13;;;15.12
59339;BMP280;45117;50.960;5.500;2023-10-19T00:37:48;98383.63;;;14.99
59339;BMP280;45117;50.960;5.500;2023-10-19T00:40:14;98410.22;;;15.12
59339;BMP280;45117;50.960;5.500;2023-10-19T00:42:59;98408.28;;;15.18
59339;BMP280;45117;50.960;5.500;2023-10-19T00:45:28;98398.97;;;15.19
59339;BMP280;45117;50.960;5.500;2023-10-19T00:47:57;98408.09;;;15.27
59339;BMP280;45117;50.960;5.500;2023-10-19T00:50:24;98402.16;;;15.23
59339;BMP280;45117;50.960;5.500;2023-10-19T00:52:54;98404.09;;;15.22
59339;BMP280;45117;50.960;5.500;2023-10-19T00:55:23;98396.00;;;15.22
59339;BMP280;45117;50.960;5.500;2023-10-19T00:57:53;98404.66;;;15.32
59339;BMP280;45117;50.960;5.500;2023-10-19T01:00:22;98408.31;;;15.29
59339;BMP280;45117;50.960;5.500;2023-10-19T01:02:56;98402.91;;;15.29
59339;BMP280;45117;50.960;5.500;2023-10-19T01:05:25;98405.63;;;15.34
59339;BMP280;45117;50.960;5.500;2023-10-19T01:07:59;98395.81;;;15.31
59339;BMP280;45117;50.960;5.500;2023-10-19T01:10:28;98405.91;;;15.37
59339;BMP280;45117;50.960;5.500;2023-10-19T01:12:57;98402.22;;;15.40
59339;BMP280;45117;50.960;5.500;2023-10-19T01:15:24;98398.53;;;15.37
59339;BMP280;45117;50.960;5.500;2023-10-19T01:18:00;98406.41;;;15.41
59339;BMP280;45117;50.960;5.500;2023-10-19T01:20:30;98404.69;;;15.43
59339;BMP280;45117;50.960;5.500;2023-10-19T01:23:17;98401.00;;;15.41
59339;BMP280;45117;50.960;5.500;2023-10-19T01:25:54;98409.09;;;15.41
59339;BMP280;45117;50.960;5.500;2023-10-19T01:28:33;98405.66;;;15.40
59339;BMP280;45117;50.960;5.500;2023-10-19T01:31:13;98402.22;;;15.40
59339;BMP280;45117;50.960;5.500;2023-10-19T01:33:43;98405.19;;;15.47
59339;BMP280;45117;50.960;5.500;2023-10-19T01:36:11;98402.00;;;15.49
59339;BMP280;45117;50.960;5.500;2023-10-19T01:38:41;98399.31;;;15.49
59339;BMP280;45117;50.960;5.500;2023-10-19T01:41:08;98403.22;;;15.48
59339;BMP280;45117;50.960;5.500;2023-10-19T01:43:40;98406.69;;;15.48
59339;BMP280;45117;50.960;5.500;2023-10-19T01:46:06;98403.47;;;15.50
59339;BMP280;45117;50.960;5.500;2023-10-19T01:48:38;98403.47;;;15.50
59339;BMP280;45117;50.960;5.500;2023-10-19T01:51:06;98399.03;;;15.41
59339;BMP280;45117;50.960;5.500;2023-10-19T01:53:33;98399.75;;;15.47
59339;BMP280;45117;50.960;5.500;2023-10-19T01:56:03;98401.00;;;15.46
59339;BMP280;45117;50.960;5.500;2023-10-19T01:58:31;98395.38;;;15.44
59339;BMP280;45117;50.960;5.500;2023-10-19T02:01:02;98393.34;;;15.39
59339;BMP280;45117;50.960;5.500;2023-10-19T02:03:31;98403.47;;;15.44
59339;BMP280;45117;50.960;5.500;2023-10-19T02:05:58;98392.88;;;15.41
59339;BMP280;45117;50.960;5.500;2023-10-19T02:08:24;98387.94;;;15.39
59339;BMP280;45117;50.960;5.500;2023-10-19T02:10:52;98390.91;;;15.41
59339;BMP280;45117;50.960;5.500;2023-10-19T02:13:19;98400.50;;;15.42
59339;BMP280;45117;50.960;5.500;2023-10-19T02:15:46;98395.59;;;15.41
59339;BMP280;45117;50.960;5.500;2023-10-19T02:18:11;98401.22;;;15.43
59339;BMP280;45117;50.960;5.500;2023-10-19T02:20:39;98394.09;;;15.40
59339;BMP280;45117;50.960;5.500;2023-10-19T02:23:07;98394.09;;;15.40
59339;BMP280;45117;50.960;5.500;2023-10-19T02:25:34;98394.09;;;15.40
59339;BMP280;45117;50.960;5.500;2023-10-19T02:28:03;98387.25;;;15.44
59339;BMP280;45117;50.960;5.500;2023-10-19T02:30:33;98385.50;;;15.41
59339;BMP280;45117;50.960;5.500;2023-10-19T02:32:59;98382.06;;;15.41
59339;BMP280;45117;50.960;5.500;2023-10-19T02:35:26;98387.47;;;15.41
59339;BMP280;45117;50.960;5.500;2023-10-19T02:37:53;98376.16;;;15.42
59339;BMP280;45117;50.960;5.500;2023-10-19T02:40:19;98373.75;;;15.44
59339;BMP280;45117;50.960;5.500;2023-10-19T02:42:46;98363.09;;;15.35
59339;BMP280;45117;50.960;5.500;2023-10-19T02:45:14;98371.72;;;15.39
59339;BMP280;45117;50.960;5.500;2023-10-19T02:47:43;98364.38;;;15.40
59339;BMP280;45117;50.960;5.500;2023-10-19T02:50:10;98361.91;;;15.36
59339;BMP280;45117;50.960;5.500;2023-10-19T02:52:38;98361.19;;;15.36
59339;BMP280;45117;50.960;5.500;2023-10-19T02:55:07;98361.91;;;15.36
59339;BMP280;45117;50.960;5.500;2023-10-19T02:57:33;98360.91;;;15.39
59339;BMP280;45117;50.960;5.500;2023-10-19T02:59:59;98357.50;;;15.39
59339;BMP280;45117;50.960;5.500;2023-10-19T03:02:26;98356.97;;;15.34
59339;BMP280;45117;50.960;5.500;2023-10-19T03:04:54;98360.41;;;15.35
59339;BMP280;45117;50.960;5.500;2023-10-19T03:07:21;98358.44;;;15.30
59339;BMP280;45117;50.960;5.500;2023-10-19T03:09:46;98355.00;;;15.35
59339;BMP280;45117;50.960;5.500;2023-10-19T03:12:19;98347.38;;;15.33
59339;BMP280;45117;50.960;5.500;2023-10-19T03:14:45;98341.28;;;15.39
59339;BMP280;45117;50.960;5.500;2023-10-19T03:17:12;98343.44;;;15.34
59339;BMP280;45117;50.960;5.500;2023-10-19T03:19:38;98346.69;;;15.33
59339;BMP280;45117;50.960;5.500;2023-10-19T03:22:06;98346.16;;;15.29
59339;BMP280;45117;50.960;5.500;2023-10-19T03:24:33;98343.44;;;15.34
59339;BMP280;45117;50.960;5.500;2023-10-19T03:27:05;98329.94;;;15.29
59339;BMP280;45117;50.960;5.500;2023-10-19T03:29:38;98324.53;;;15.29
59339;BMP280;45117;50.960;5.500;2023-10-19T03:32:05;98328.72;;;15.24
59339;BMP280;45117;50.960;5.500;2023-10-19T03:34:33;98322.53;;;15.13
59339;BMP280;45117;50.960;5.500;2023-10-19T03:37:00;98324.00;;;15.14
59339;BMP280;45117;50.960;5.500;2023-10-19T03:39:33;98318.34;;;15.06
59339;BMP280;45117;50.960;5.500;2023-10-19T03:42:03;98311.44;;;14.99
59339;BMP280;45117;50.960;5.500;2023-10-19T03:44:31;98316.34;;;14.95
59339;BMP280;45117;50.960;5.500;2023-10-19T03:47:08;98317.56;;;14.94
59339;BMP280;45117;50.960;5.500;2023-10-19T03:49:37;98318.53;;;14.86
59339;BMP280;45117;50.960;5.500;2023-10-19T03:52:04;98313.88;;;14.81
59339;BMP280;45117;50.960;5.500;2023-10-19T03:55:00;98320.19;;;14.72
59339;BMP280;45117;50.960;5.500;2023-10-19T03:57:27;98323.38;;;14.76
59339;BMP280;45117;50.960;5.500;2023-10-19T03:59:55;98327.78;;;14.68
59339;BMP280;45117;50.960;5.500;2023-10-19T04:02:22;98325.84;;;14.68
59339;BMP280;45117;50.960;5.500;2023-10-19T04:04:50;98324.09;;;14.71
59339;BMP280;45117;50.960;5.500;2023-10-19T04:07:18;98335.19;;;14.73
59339;BMP280;45117;50.960;5.500;2023-10-19T04:09:47;98332.94;;;14.66
59339;BMP280;45117;50.960;5.500;2023-10-19T04:12:37;98312.03;;;14.61
59339;BMP280;45117;50.960;5.500;2023-10-19T04:15:08;98325.56;;;14.66
59339;BMP280;45117;50.960;5.500;2023-10-19T04:17:41;98326.81;;;14.71
59339;BMP280;45117;50.960;5.500;2023-10-19T04:20:09;98307.09;;;14.54
59339;BMP280;45117;50.960;5.500;2023-10-19T04:22:53;98318.19;;;14.61
59339;BMP280;45117;50.960;5.500;2023-10-19T04:25:20;98328.50;;;14.63
59339;BMP280;45117;50.960;5.500;2023-10-19T04:27:52;98329.97;;;14.64
59339;BMP280;45117;50.960;5.500;2023-10-19T04:30:19;98335.63;;;14.66
59339;BMP280;45117;50.960;5.500;2023-10-19T04:32:49;98335.13;;;14.62
59339;BMP280;45117;50.960;5.500;2023-10-19T04:35:16;98329.19;;;14.58
59339;BMP280;45117;50.960;5.500;2023-10-19T04:37:48;98332.63;;;14.58
59339;BMP280;45117;50.960;5.500;2023-10-19T04:40:15;98338.25;;;14.55
59339;BMP280;45117;50.960;5.500;2023-10-19T04:42:42;98351.56;;;14.64
59339;BMP280;45117;50.960;5.500;2023-10-19T04:45:10;98339.50;;;14.59
59339;BMP280;45117;50.960;5.500;2023-10-19T04:47:38;98334.88;;;14.60
59339;BMP280;45117;50.960;5.500;2023-10-19T04:50:06;98336.06;;;14.59
59339;BMP280;45117;50.960;5.500;2023-10-19T04:52:33;98326.28;;;14.56
59339;BMP280;45117;50.960;5.500;2023-10-19T04:55:00;98335.09;;;14.56
59339;BMP280;45117;50.960;5.500;2023-10-19T04:57:27;98336.81;;;14.59
59339;BMP280;45117;50.960;5.500;2023-10-19T04:59:54;98327.50;;;14.60
59339;BMP280;45117;50.960;5.500;2023-10-19T05:02:23;98328.25;;;14.61
59339;BMP280;45117;50.960;5.500;2023-10-19T05:04:49;98327.03;;;14.62
59339;BMP280;45117;50.960;5.500;2023-10-19T05:07:16;98334.16;;;14.65
59339;BMP280;45117;50.960;5.500;2023-10-19T05:09:43;98338.31;;;14.66
59339;BMP280;45117;50.960;5.500;2023-10-19T05:12:10;98324.09;;;14.65
59339;BMP280;45117;50.960;5.500;2023-10-19T05:14:37;98337.09;;;14.67
59339;BMP280;45117;50.960;5.500;2023-10-19T05:17:04;98341.75;;;14.66
59339;BMP280;45117;50.960;5.500;2023-10-19T05:19:32;98335.38;;;14.69
59339;BMP280;45117;50.960;5.500;2023-10-19T05:22:00;98333.19;;;14.68
59339;BMP280;45117;50.960;5.500;2023-10-19T05:24:27;98328.25;;;14.66
59339;BMP280;45117;50.960;5.500;2023-10-19T05:26:54;98327.53;;;14.71
59339;BMP280;45117;50.960;5.500;2023-10-19T05:29:20;98330.53;;;14.73
59339;BMP280;45117;50.960;5.500;2023-10-19T05:31:47;98329.03;;;14.72
59339;BMP280;45117;50.960;5.500;2023-10-19T05:34:18;98332.94;;;14.71
59339;BMP280;45117;50.960;5.500;2023-10-19T05:36:46;98329.50;;;14.71
59339;BMP280;45117;50.960;5.500;2023-10-19T05:39:14;98333.69;;;14.72
59339;BMP280;45117;50.960;5.500;2023-10-19T05:41:40;98334.19;;;14.76
59339;BMP280;45117;50.960;5.500;2023-10-19T05:44:07;98342.28;;;14.76
59339;BMP280;45117;50.960;5.500;2023-10-19T05:46:34;98339.56;;;14.76
59339;BMP280;45117;50.960;5.500;2023-10-19T05:49:01;98343.28;;;14.79
59339;BMP280;45117;50.960;5.500;2023-10-19T05:51:29;98343.03;;;14.77
59339;BMP280;45117;50.960;5.500;2023-10-19T05:53:57;98342.81;;;14.80
59339;BMP280;45117;50.960;5.500;2023-10-19T05:56:28;98348.69;;;14.79
59339;BMP280;45117;50.960;5.500;2023-10-19T05:58:55;98344.78;;;14.80
59339;BMP280;45117;50.960;5.500;2023-10-19T06:01:23;98335.69;;;14.77
59339;BMP280;45117;50.960;5.500;2023-10-19T06:03:49;98340.59;;;14.79
59339;BMP280;45117;50.960;5.500;2023-10-19T06:06:18;98338.91;;;14.81
59339;BMP280;45117;50.960;5.500;2023-10-19T06:08:46;98342.81;;;14.80
59339;BMP280;45117;50.960;5.500;2023-10-19T06:11:14;98346.00;;;14.84
59339;BMP280;45117;50.960;5.500;2023-10-19T06:13:40;98343.06;;;14.88
59339;BMP280;45117;50.960;5.500;2023-10-19T06:16:08;98355.84;;;14.87
59339;BMP280;45117;50.960;5.500;2023-10-19T06:18:35;98359.06;;;14.91
59339;BMP280;45117;50.960;5.500;2023-10-19T06:21:01;98350.22;;;14.85
59339;BMP280;45117;50.960;5.500;2023-10-19T06:23:29;98370.34;;;14.90
59339;BMP280;45117;50.960;5.500;2023-10-19T06:25:56;98371.84;;;14.91
59339;BMP280;45117;50.960;5.500;2023-10-19T06:28:24;98384.84;;;14.92
59339;BMP280;45117;50.960;5.500;2023-10-19T06:30:51;98381.41;;;14.92
59339;BMP280;45117;50.960;5.500;2023-10-19T06:33:18;98378.22;;;14.93
59339;BMP280;45117;50.960;5.500;2023-10-19T06:35:44;98373.56;;;14.94
59339;BMP280;45117;50.960;5.500;2023-10-19T06:38:11;98369.88;;;14.91
59339;BMP280;45117;50.960;5.500;2023-10-19T06:40:37;98374.31;;;14.94
59339;BMP280;45117;50.960;5.500;2023-10-19T06:43:04;98370.34;;;14.90
59339;BMP280;45117;50.960;5.500;2023-10-19T06:45:33;98378.75;;;14.97
59339;BMP280;45117;50.960;5.500;2023-10-19T06:47:59;98375.78;;;14.95
59339;BMP280;45117;50.960;5.500;2023-10-19T06:50:27;98369.88;;;14.97
59339;BMP280;45117;50.960;5.500;2023-10-19T06:52:53;98361.03;;;14.91
59339;BMP280;45117;50.960;5.500;2023-10-19T06:55:20;98363.50;;;14.94
59339;BMP280;45117;50.960;5.500;2023-10-19T06:57:49;98366.44;;;14.96
59339;BMP280;45117;50.960;5.500;2023-10-19T07:00:17;98369.41;;;14.98
59339;BMP280;45117;50.960;5.500;2023-10-19T07:02:47;98363.25;;;14.92
59339;BMP280;45117;50.960;5.500;2023-10-19T07:05:14;98360.78;;;14.94
59339;BMP280;45117;50.960;5.500;2023-10-19T07:07:44;98383.16;;;15.00
59339;BMP280;45117;50.960;5.500;2023-10-19T07:10:12;98356.56;;;14.88
59339;BMP280;45117;50.960;5.500;2023-10-19T07:12:41;98367.69;;;15.01
59339;BMP280;45117;50.960;5.500;2023-10-19T07:15:08;98368.91;;;15.06
59339;BMP280;45117;50.960;5.500;2023-10-19T07:17:39;98368.47;;;15.07
59339;BMP280;45117;50.960;5.500;2023-10-19T07:20:08;98370.44;;;15.12
59339;BMP280;45117;50.960;5.500;2023-10-19T07:22:47;98378.06;;;15.14
59339;BMP280;45117;50.960;5.500;2023-10-19T07:25:14;98384.22;;;15.14
59339;BMP280;45117;50.960;5.500;2023-10-19T07:27:40;98366.03;;;15.15
59339;BMP280;45117;50.960;5.500;2023-10-19T07:30:08;98363.06;;;15.18
59339;BMP280;45117;50.960;5.500;2023-10-19T07:32:35;98360.16;;;15.22
59339;BMP280;45117;50.960;5.500;2023-10-19T07:35:04;98358.69;;;15.26
59339;BMP280;45117;50.960;5.500;2023-10-19T07:37:32;98367.03;;;15.28
59339;BMP280;45117;50.960;5.500;2023-10-19T07:39:59;98359.94;;;15.31
59339;BMP280;45117;50.960;5.500;2023-10-19T07:42:25;98352.78;;;15.39
59339;BMP280;45117;50.960;5.500;2023-10-19T07:44:52;98347.19;;;15.59
59339;BMP280;45117;50.960;5.500;2023-10-19T07:47:19;98329.97;;;15.62
59339;BMP280;45117;50.960;5.500;2023-10-19T07:49:45;98342.53;;;15.88
59339;BMP280;45117;50.960;5.500;2023-10-19T07:52:13;98347.44;;;15.95
59339;BMP280;45117;50.960;5.500;2023-10-19T07:54:41;98334.91;;;15.86
59339;BMP280;45117;50.960;5.500;2023-10-19T07:57:07;98335.16;;;15.83
59339;BMP280;45117;50.960;5.500;2023-10-19T07:59:37;98340.56;;;15.83
59339;BMP280;45117;50.960;5.500;2023-10-19T08:02:04;98333.19;;;15.83
59339;BMP280;45117;50.960;5.500;2023-10-19T08:04:33;98335.16;;;15.88
59339;BMP280;45117;50.960;5.500;2023-10-19T08:07:00;98329.97;;;15.96
59339;BMP280;45117;50.960;5.500;2023-10-19T08:09:26;98321.59;;;16.05
59339;BMP280;45117;50.960;5.500;2023-10-19T08:11:58;98323.50;;;16.27
59339;BMP280;45117;50.960;5.500;2023-10-19T08:14:25;98323.78;;;16.29
59339;BMP280;45117;50.960;5.500;2023-10-19T08:16:52;98318.50;;;16.59
59339;BMP280;45117;50.960;5.500;2023-10-19T08:19:19;98319.75;;;16.58
59339;BMP280;45117;50.960;5.500;2023-10-19T08:21:46;98318.56;;;17.66
59339;BMP280;45117;50.960;5.500;2023-10-19T08:24:13;98317.38;;;17.91
59339;BMP280;45117;50.960;5.500;2023-10-19T08:26:43;98311.13;;;18.21
59339;BMP280;45117;50.960;5.500;2023-10-19T08:29:12;98322.31;;;18.36
59339;BMP280;45117;50.960;5.500;2023-10-19T08:31:39;98314.41;;;18.14
59339;BMP280;45117;50.960;5.500;2023-10-19T08:34:06;98311.97;;;17.86
59339;BMP280;45117;50.960;5.500;2023-10-19T08:36:35;98304.38;;;17.54
59339;BMP280;45117;50.960;5.500;2023-10-19T08:39:03;98312.72;;;17.56
59339;BMP280;45117;50.960;5.500;2023-10-19T08:41:31;98313.28;;;17.49
59339;BMP280;45117;50.960;5.500;2023-10-19T08:44:00;98305.81;;;17.55
59339;BMP280;45117;50.960;5.500;2023-10-19T08:46:28;98295.81;;;17.44
59339;BMP280;45117;50.960;5.500;2023-10-19T08:48:55;98297.28;;;17.45
59339;BMP280;45117;50.960;5.500;2023-10-19T08:51:22;98297.97;;;17.52
59339;BMP280;45117;50.960;5.500;2023-10-19T08:53:53;98292.22;;;17.61
59339;BMP280;45117;50.960;5.500;2023-10-19T08:56:20;98296.03;;;17.76
59339;BMP280;45117;50.960;5.500;2023-10-19T08:58:49;98290.66;;;17.71
59339;BMP280;45117;50.960;5.500;2023-10-19T09:01:18;98289.28;;;18.07
59339;BMP280;45117;50.960;5.500;2023-10-19T09:03:46;98287.91;;;18.20
59339;BMP280;45117;50.960;5.500;2023-10-19T09:06:12;98291.69;;;18.17
59339;BMP280;45117;50.960;5.500;2023-10-19T09:08:40;98293.63;;;18.16
59339;BMP280;45117;50.960;5.500;2023-10-19T09:11:08;98281.13;;;17.89
59339;BMP280;45117;50.960;5.500;2023-10-19T09:13:44;98284.47;;;17.95
59339;BMP280;45117;50.960;5.500;2023-10-19T09:16:13;98281.63;;;17.87
59339;BMP280;45117;50.960;5.500;2023-10-19T09:18:40;98276.88;;;17.93
59339;BMP280;45117;50.960;5.500;2023-10-19T09:21:08;98286.19;;;17.98
59339;BMP280;45117;50.960;5.500;2023-10-19T09:23:38;98282.47;;;18.01
59339;BMP280;45117;50.960;5.500;2023-10-19T09:26:05;98286.59;;;18.07
59339;BMP280;45117;50.960;5.500;2023-10-19T09:28:34;98281.94;;;18.02
59339;BMP280;45117;50.960;5.500;2023-10-19T09:31:02;98270.06;;;18.05
59339;BMP280;45117;50.960;5.500;2023-10-19T09:33:31;98279.63;;;18.12
59339;BMP280;45117;50.960;5.500;2023-10-19T09:36:00;98278.44;;;18.07
59339;BMP280;45117;50.960;5.500;2023-10-19T09:38:28;98273.06;;;18.02
59339;BMP280;45117;50.960;5.500;2023-10-19T09:40:55;98257.81;;;17.99
59339;BMP280;45117;50.960;5.500;2023-10-19T09:43:33;98265.63;;;18.08
59339;BMP280;45117;50.960;5.500;2023-10-19T09:46:01;98264.78;;;17.94
59339;BMP280;45117;50.960;5.500;2023-10-19T09:48:31;98244.63;;;18.08
59339;BMP280;45117;50.960;5.500;2023-10-19T09:51:01;98243.50;;;17.98
59339;BMP280;45117;50.960;5.500;2023-10-19T09:53:30;98259.28;;;18.19
59339;BMP280;45117;50.960;5.500;2023-10-19T09:55:59;98257.69;;;18.29
59339;BMP280;45117;50.960;5.500;2023-10-19T09:58:27;98254.09;;;18.39
59339;BMP280;45117;50.960;5.500;2023-10-19T10:00:56;98263.44;;;18.63
59339;BMP280;45117;50.960;5.500;2023-10-19T10:03:45;98260.84;;;18.70
59339;BMP280;45117;50.960;5.500;2023-10-19T10:06:13;98262.72;;;18.94
59339;BMP280;45117;50.960;5.500;2023-10-19T10:08:42;98259.00;;;18.97
59339;BMP280;45117;50.960;5.500;2023-10-19T10:11:20;98250.63;;;19.09
59339;BMP280;45117;50.960;5.500;2023-10-19T10:13:48;98259.13;;;19.05
59339;BMP280;45117;50.960;5.500;2023-10-19T10:16:19;98260.34;;;19.04
59339;BMP280;45117;50.960;5.500;2023-10-19T10:18:48;98280.88;;;19.05
59339;BMP280;45117;50.960;5.500;2023-10-19T10:21:17;98277.75;;;19.14
59339;BMP280;45117;50.960;5.500;2023-10-19T10:23:48;98268.84;;;19.00
59339;BMP280;45117;50.960;5.500;2023-10-19T10:26:16;98271.91;;;18.91
59339;BMP280;45117;50.960;5.500;2023-10-19T10:28:47;98269.38;;;18.80
59339;BMP280;45117;50.960;5.500;2023-10-19T10:31:19;98260.03;;;18.76
59339;BMP280;45117;50.960;5.500;2023-10-19T10:33:47;98249.72;;;18.55
59339;BMP280;45117;50.960;5.500;2023-10-19T10:36:15;98263.44;;;18.63
59339;BMP280;45117;50.960;5.500;2023-10-19T10:38:43;98262.38;;;18.66
59339;BMP280;45117;50.960;5.500;2023-10-19T10:41:11;98250.28;;;18.67
59339;BMP280;45117;50.960;5.500;2023-10-19T10:43:48;98264.38;;;18.84
59339;BMP280;45117;50.960;5.500;2023-10-19T10:46:16;98258.31;;;18.91
59339;BMP280;45117;50.960;5.500;2023-10-19T10:48:43;98244.75;;;19.36
59339;BMP280;45117;50.960;5.500;2023-10-19T10:51:17;98249.16;;;20.06
59339;BMP280;45117;50.960;5.500;2023-10-19T10:53:43;98241.22;;;19.81
59339;BMP280;45117;50.960;5.500;2023-10-19T10:56:13;98237.94;;;19.56
59339;BMP280;45117;50.960;5.500;2023-10-19T10:58:40;98227.06;;;19.56
59339;BMP280;45117;50.960;5.500;2023-10-19T11:01:07;98228.09;;;19.53
59339;BMP280;45117;50.960;5.500;2023-10-19T11:03:33;98224.41;;;19.11
59339;BMP280;45117;50.960;5.500;2023-10-19T11:06:04;98216.16;;;19.30
59339;BMP280;45117;50.960;5.500;2023-10-19T11:08:34;98213.56;;;19.38
59339;BMP280;45117;50.960;5.500;2023-10-19T11:11:06;98209.59;;;19.52
59339;BMP280;45117;50.960;5.500;2023-10-19T11:13:34;98213.34;;;19.49
59339;BMP280;45117;50.960;5.500;2023-10-19T11:16:03;98212.34;;;19.52
59339;BMP280;45117;50.960;5.500;2023-10-19T11:18:33;98208.56;;;19.55
59339;BMP280;45117;50.960;5.500;2023-10-19T11:21:02;98204.28;;;19.59
59339;BMP280;45117;50.960;5.500;2023-10-19T11:23:41;98202.78;;;19.85
59339;BMP280;45117;50.960;5.500;2023-10-19T11:26:09;98203.25;;;19.96
59339;BMP280;45117;50.960;5.500;2023-10-19T11:28:38;98207.81;;;19.81
59339;BMP280;45117;50.960;5.500;2023-10-19T11:31:16;98206.31;;;19.80
59339;BMP280;45117;50.960;5.500;2023-10-19T11:33:44;98205.69;;;20.00
59339;BMP280;45117;50.960;5.500;2023-10-19T11:36:13;98204.97;;;19.86
59339;BMP280;45117;50.960;5.500;2023-10-19T11:38:41;98207.88;;;19.88
59339;BMP280;45117;50.960;5.500;2023-10-19T11:41:08;98203.59;;;19.80
59339;BMP280;45117;50.960;5.500;2023-10-19T11:43:35;98200.56;;;19.70
59339;BMP280;45117;50.960;5.500;2023-10-19T11:46:03;98202.28;;;19.60
59339;BMP280;45117;50.960;5.500;2023-10-19T11:48:31;98194.94;;;19.68
59339;BMP280;45117;50.960;5.500;2023-10-19T11:50:59;98203.44;;;19.64
59339;BMP280;45117;50.960;5.500;2023-10-19T11:53:30;98208.00;;;19.56
59339;BMP280;45117;50.960;5.500;2023-10-19T11:55:58;98200.06;;;19.45
59339;BMP280;45117;50.960;5.500;2023-10-19T11:58:26;98204.88;;;19.39
59339;BMP280;45117;50.960;5.500;2023-10-19T12:00:52;98205.72;;;19.34
59339;BMP280;45117;50.960;5.500;2023-10-19T12:03:21;98201.09;;;19.29
59339;BMP280;45117;50.960;5.500;2023-10-19T12:05:48;98195.84;;;19.18
59339;BMP280;45117;50.960;5.500;2023-10-19T12:08:14;98200.78;;;19.19
59339;BMP280;45117;50.960;5.500;2023-10-19T12:10:42;98203.06;;;19.15
59339;BMP280;45117;50.960;5.500;2023-10-19T12:13:09;98204.22;;;19.07
59339;BMP280;45117;50.960;5.500;2023-10-19T12:15:35;98201.78;;;19.03
59339;BMP280;45117;50.960;5.500;2023-10-19T12:18:02;98202.59;;;18.98
59339;BMP280;45117;50.960;5.500;2023-10-19T12:20:31;98208.00;;;18.85
59339;BMP280;45117;50.960;5.500;2023-10-19T12:22:58;98199.38;;;18.67
59339;BMP280;45117;50.960;5.500;2023-10-19T12:25:26;98197.09;;;18.71
59339;BMP280;45117;50.960;5.500;2023-10-19T12:27:57;98206.47;;;18.70
59339;BMP280;45117;50.960;5.500;2023-10-19T12:30:23;98201.53;;;18.56
59339;BMP280;45117;50.960;5.500;2023-10-19T12:32:52;98189.94;;;18.55
59339;BMP280;45117;50.960;5.500;2023-10-19T12:35:19;98195.81;;;18.40
59339;BMP280;45117;50.960;5.500;2023-10-19T12:37:51;98196.19;;;18.31
59339;BMP280;45117;50.960;5.500;2023-10-19T12:40:18;98160.72;;;17.86
59339;BMP280;45117;50.960;5.500;2023-10-19T12:42:54;98188.19;;;18.01
59339;BMP280;45117;50.960;5.500;2023-10-19T12:45:21;98193.47;;;17.94
59339;BMP280;45117;50.960;5.500;2023-10-19T12:47:48;98183.22;;;17.81
59339;BMP280;45117;50.960;5.500;2023-10-19T12:50:15;98179.25;;;17.82
59339;BMP280;45117;50.960;5.500;2023-10-19T12:52:42;98185.28;;;17.75
59339;BMP280;45117;50.960;5.500;2023-10-19T12:55:09;98172.00;;;17.71
59339;BMP280;45117;50.960;5.500;2023-10-19T12:57:36;98169.13;;;17.64
59339;BMP280;45117;50.960;5.500;2023-10-19T13:00:03;98159.34;;;17.55
59339;BMP280;45117;50.960;5.500;2023-10-19T13:02:49;98158.66;;;17.49
59339;BMP280;45117;50.960;5.500;2023-10-19T13:05:15;98158.88;;;17.51
59339;BMP280;45117;50.960;5.500;2023-10-19T13:07:43;98154.50;;;17.48
59339;BMP280;45117;50.960;5.500;2023-10-19T13:10:11;98133.69;;;17.32
59339;BMP280;45117;50.960;5.500;2023-10-19T13:12:38;98156.53;;;17.42
59339;BMP280;45117;50.960;5.500;2023-10-19T13:15:06;98137.53;;;17.42
59339;BMP280;45117;50.960;5.500;2023-10-19T13:17:38;98138.56;;;17.39
59339;BMP280;45117;50.960;5.500;2023-10-19T13:20:06;98146.41;;;17.42
59339;BMP280;45117;50.960;5.500;2023-10-19T13:22:41;98136.81;;;17.41
59339;BMP280;45117;50.960;5.500;2023-10-19T13:25:08;98127.19;;;17.40
59339;BMP280;45117;50.960;5.500;2023-10-19T13:27:39;98125.00;;;17.39
59339;BMP280;45117;50.960;5.500;2023-10-19T13:30:08;98126.47;;;17.40
59339;BMP280;45117;50.960;5.500;2023-10-19T13:32:36;98120.31;;;17.39
59339;BMP280;45117;50.960;5.500;2023-10-19T13:35:03;98114.03;;;17.26
59339;BMP280;45117;50.960;5.500;2023-10-19T13:37:30;98099.25;;;17.27
59339;BMP280;45117;50.960;5.500;2023-10-19T13:39:57;98084.50;;;17.22
59339;BMP280;45117;50.960;5.500;2023-10-19T13:42:24;98093.56;;;17.30
59339;BMP280;45117;50.960;5.500;2023-10-19T13:44:52;98086.06;;;17.36
59339;BMP280;45117;50.960;5.500;2023-10-19T13:47:19;98082.97;;;17.27
59339;BMP280;45117;50.960;5.500;2023-10-19T13:49:45;98082.22;;;17.26
59339;BMP280;45117;50.960;5.500;2023-10-19T13:52:12;98076.00;;;17.31
59339;BMP280;45117;50.960;5.500;2023-10-19T13:54:40;98069.66;;;17.29
59339;BMP280;45117;50.960;5.500;2023-10-19T13:57:07;98060.88;;;17.41
59339;BMP280;45117;50.960;5.500;2023-10-19T13:59:35;98061.78;;;17.50
59339;BMP280;45117;50.960;5.500;2023-10-19T14:02:03;98065.72;;;17.48
59339;BMP280;45117;50.960;5.500;2023-10-19T14:04:31;98047.41;;;17.55
59339;BMP280;45117;50.960;5.500;2023-10-19T14:06:57;98042.25;;;17.51
59339;BMP280;45117;50.960;5.500;2023-10-19T14:09:25;98046.13;;;17.56
59339;BMP280;45117;50.960;5.500;2023-10-19T14:11:53;98041.31;;;17.67
59339;BMP280;45117;50.960;5.500;2023-10-19T19:22:59;97750.81;;;14.52
59339;BMP280;45117;50.960;5.500;2023-10-19T19:28:36;97757.72;;;14.47
59339;BMP280;45117;50.960;5.500;2023-10-19T19:31:05;97780.25;;;14.55